createdAt,value
2022-11-01T00:00:24.387Z,16.20
2022-11-01T00:02:27.026Z,16.50
2022-11-01T00:04:29.543Z,16.80
2022-11-01T00:06:32.032Z,17.20
2022-11-01T00:08:34.529Z,17.60
2022-11-01T00:10:37.137Z,17.70
2022-11-01T00:12:40.708Z,17.90
2022-11-01T00:14:43.221Z,17.90
2022-11-01T00:16:45.967Z,17.90
2022-11-01T00:18:48.668Z,18.00
2022-11-01T00:20:51.181Z,18.10
2022-11-01T00:22:53.653Z,18.20
2022-11-01T00:24:56.190Z,18.10
2022-11-01T00:26:59.225Z,18.10
2022-11-01T00:29:01.712Z,18.10
2022-11-01T00:31:06.546Z,18.10
2022-11-01T00:33:08.783Z,18.20
2022-11-01T00:35:11.264Z,18.10
2022-11-01T00:37:13.764Z,17.70
2022-11-01T00:39:16.284Z,18.20
2022-11-01T00:41:20.210Z,18.20
2022-11-01T00:43:22.906Z,18.20
2022-11-01T00:45:25.495Z,18.40
2022-11-01T00:47:27.981Z,18.50
2022-11-01T00:49:30.495Z,18.50
2022-11-01T00:51:32.990Z,18.50
2022-11-01T00:53:35.492Z,18.50
2022-11-01T00:55:38.174Z,18.40
2022-11-01T00:57:40.660Z,18.40
2022-11-01T00:59:43.313Z,18.30
2022-11-01T01:01:46.068Z,18.40
2022-11-01T01:03:48.772Z,18.50
2022-11-01T01:05:52.400Z,18.50
2022-11-01T01:07:54.924Z,18.40
2022-11-01T01:09:57.929Z,18.40
2022-11-01T01:12:01.254Z,18.40
2022-11-01T01:14:03.744Z,18.30
2022-11-01T01:16:10.623Z,18.30
2022-11-01T01:18:13.535Z,18.30
2022-11-01T01:20:16.290Z,18.20
2022-11-01T01:22:18.800Z,18.30
2022-11-01T01:24:21.518Z,18.20
2022-11-01T01:26:24.121Z,18.20
2022-11-01T01:28:26.706Z,18.10
2022-11-01T01:30:29.186Z,18.10
2022-11-01T01:32:31.687Z,18.00
2022-11-01T01:34:34.271Z,18.00
2022-11-01T01:36:36.853Z,18.00
2022-11-01T01:38:39.341Z,17.90
2022-11-01T01:40:42.061Z,17.90
2022-11-01T01:42:46.464Z,17.80
2022-11-01T01:45:09.635Z,17.80
2022-11-01T01:47:14.148Z,17.80
2022-11-01T01:49:16.624Z,17.70
2022-11-01T01:51:20.941Z,17.60
2022-11-01T01:53:25.333Z,17.60
2022-11-01T01:55:29.707Z,17.60
2022-11-01T01:57:32.359Z,17.60
2022-11-01T01:59:36.597Z,17.50
2022-11-01T02:01:40.469Z,17.60
2022-11-01T02:03:43.404Z,17.50
2022-11-01T02:05:47.704Z,17.50
2022-11-01T02:07:50.305Z,17.40
2022-11-01T02:09:54.071Z,17.40
2022-11-01T02:11:57.367Z,17.30
2022-11-01T02:14:00.571Z,17.30
2022-11-01T02:16:07.777Z,17.30
2022-11-01T02:18:14.484Z,17.40
2022-11-01T02:20:23.332Z,17.30
2022-11-01T02:22:27.993Z,17.30
2022-11-01T02:24:36.183Z,17.30
2022-11-01T02:26:53.325Z,17.30
2022-11-01T02:29:03.107Z,17.20
2022-11-01T02:31:06.195Z,17.20
2022-11-01T02:33:18.168Z,17.10
2022-11-01T02:35:23.887Z,17.20
2022-11-01T02:37:28.190Z,17.10
2022-11-01T02:39:32.444Z,17.10
2022-11-01T02:41:36.844Z,17.10
2022-11-01T02:43:42.354Z,17.20
2022-11-01T02:45:46.923Z,17.20
2022-11-01T02:47:49.412Z,17.20
2022-11-01T02:49:54.681Z,17.20
2022-11-01T02:51:58.700Z,17.30
2022-11-01T02:54:01.796Z,17.20
2022-11-01T02:56:04.303Z,17.30
2022-11-01T02:58:08.604Z,17.30
2022-11-01T03:00:19.491Z,17.30
2022-11-01T03:02:25.609Z,17.30
2022-11-01T03:04:28.239Z,17.30
2022-11-01T03:06:32.653Z,17.20
2022-11-01T03:08:37.368Z,17.20
2022-11-01T03:10:41.952Z,17.20
2022-11-01T03:12:47.461Z,17.20
2022-11-01T03:14:52.255Z,17.20
2022-11-01T03:16:56.531Z,17.20
2022-11-01T03:19:09.110Z,17.20
2022-11-01T03:21:15.466Z,17.20
2022-11-01T03:23:20.000Z,17.20
2022-11-01T03:25:43.990Z,17.20
2022-11-01T03:27:47.004Z,17.20
2022-11-01T03:29:55.045Z,17.20
2022-11-01T03:31:58.636Z,17.30
2022-11-01T03:34:02.780Z,17.30
2022-11-01T03:36:11.955Z,17.30
2022-11-01T03:38:13.499Z,17.40
2022-11-01T03:40:17.315Z,17.30
2022-11-01T03:42:21.655Z,17.40
2022-11-01T03:44:24.851Z,17.40
2022-11-01T03:46:27.808Z,17.40
2022-11-01T03:48:30.315Z,17.50
2022-11-01T03:50:33.598Z,17.60
2022-11-01T03:52:36.091Z,17.50
2022-11-01T03:54:38.799Z,17.60
2022-11-01T03:56:41.453Z,17.70
2022-11-01T03:58:45.377Z,17.60
2022-11-01T04:00:47.958Z,17.60
2022-11-01T04:02:50.992Z,17.60
2022-11-01T04:04:53.597Z,17.60
2022-11-01T04:06:56.516Z,17.60
2022-11-01T04:08:58.998Z,17.70
2022-11-01T04:11:01.477Z,17.60
2022-11-01T04:13:04.524Z,17.60
2022-11-01T04:15:38.959Z,17.60
2022-11-01T04:20:14.056Z,17.60
2022-11-01T04:22:19.376Z,17.60
2022-11-01T04:24:21.164Z,17.60
2022-11-01T04:26:24.345Z,17.60
2022-11-01T04:28:26.854Z,17.50
2022-11-01T04:30:29.887Z,17.50
2022-11-01T04:32:32.385Z,17.60
2022-11-01T04:34:43.632Z,17.50
2022-11-01T04:36:46.148Z,17.60
2022-11-01T04:38:52.275Z,17.50
2022-11-01T04:40:54.724Z,17.50
2022-11-01T04:42:57.853Z,17.50
2022-11-01T04:45:00.350Z,17.50
2022-11-01T04:47:03.061Z,17.50
2022-11-01T04:49:05.676Z,17.60
2022-11-01T04:51:08.965Z,17.50
2022-11-01T04:53:11.439Z,17.50
2022-11-01T04:55:14.169Z,17.40
2022-11-01T04:57:22.744Z,17.50
2022-11-01T04:59:25.460Z,17.40
2022-11-01T05:01:28.242Z,17.50
2022-11-01T05:03:30.792Z,17.40
2022-11-01T05:05:33.796Z,17.40
2022-11-01T05:07:36.598Z,17.40
2022-11-01T05:09:39.122Z,17.40
2022-11-01T05:11:41.867Z,17.40
2022-11-01T05:13:44.588Z,17.40
2022-11-01T05:15:59.693Z,17.30
2022-11-01T05:17:51.408Z,17.30
2022-11-01T05:19:53.892Z,17.40
2022-11-01T05:21:57.393Z,17.30
2022-11-01T05:24:00.001Z,17.30
2022-11-01T05:26:02.621Z,17.40
2022-11-01T05:28:06.831Z,17.30
2022-11-01T05:30:10.707Z,17.30
2022-11-01T05:32:13.153Z,17.30
2022-11-01T05:34:15.651Z,17.30
2022-11-01T05:36:18.158Z,17.20
2022-11-01T05:38:20.649Z,17.20
2022-11-01T05:40:23.452Z,17.10
2022-11-01T05:42:26.387Z,17.10
2022-11-01T05:44:29.124Z,17.10
2022-11-01T05:46:31.697Z,17.10
2022-11-01T05:48:34.169Z,17.10
2022-11-01T05:50:36.964Z,17.10
2022-11-01T05:52:41.203Z,17.00
2022-11-01T05:54:43.733Z,17.00
2022-11-01T05:56:46.285Z,16.90
2022-11-01T05:58:48.757Z,17.00
2022-11-01T06:00:53.277Z,17.00
2022-11-01T06:02:57.808Z,16.90
2022-11-01T06:05:02.880Z,16.90
2022-11-01T06:07:04.688Z,16.80
2022-11-01T06:09:07.260Z,16.80
2022-11-01T06:11:10.777Z,16.90
2022-11-01T06:13:13.297Z,16.90
2022-11-01T06:15:16.278Z,16.80
2022-11-01T06:17:18.956Z,16.80
2022-11-01T06:19:21.458Z,16.90
2022-11-01T06:21:27.607Z,16.90
2022-11-01T06:23:28.314Z,16.90
2022-11-01T06:25:30.769Z,17.00
2022-11-01T06:27:33.273Z,16.90
2022-11-01T06:29:35.760Z,16.90
2022-11-01T06:31:38.727Z,16.90
2022-11-01T06:33:41.547Z,17.00
2022-11-01T06:35:44.024Z,17.00
2022-11-01T06:37:46.786Z,17.00
2022-11-01T06:39:49.958Z,17.00
2022-11-01T06:41:52.467Z,17.00
2022-11-01T06:43:54.936Z,16.90
2022-11-01T06:45:59.779Z,16.90
2022-11-01T06:48:02.594Z,16.90
2022-11-01T06:50:06.343Z,16.90
2022-11-01T06:52:09.203Z,16.90
2022-11-01T06:54:11.910Z,16.90
2022-11-01T06:56:14.357Z,16.90
2022-11-01T06:58:17.065Z,16.90
2022-11-01T07:00:19.767Z,16.90
2022-11-01T07:02:27.058Z,16.90
2022-11-01T07:04:28.646Z,16.90
2022-11-01T07:06:31.252Z,16.90
2022-11-01T07:08:33.713Z,16.90
2022-11-01T07:10:36.781Z,16.90
2022-11-01T07:12:39.262Z,16.90
2022-11-01T07:14:41.904Z,16.90
2022-11-01T07:16:44.523Z,16.90
2022-11-01T07:18:47.213Z,17.00
2022-11-01T07:20:49.691Z,17.00
2022-11-01T07:22:59.836Z,17.00
2022-11-01T07:25:02.679Z,17.00
2022-11-01T07:27:05.161Z,16.90
2022-11-01T07:29:07.675Z,16.90
2022-11-01T07:31:10.166Z,16.90
2022-11-01T07:33:12.665Z,17.00
2022-11-01T07:35:15.564Z,17.00
2022-11-01T07:37:18.118Z,16.90
2022-11-01T07:39:20.625Z,17.00
2022-11-01T07:41:23.230Z,16.90
2022-11-01T07:43:25.671Z,16.80
2022-11-01T07:45:29.162Z,16.80
2022-11-01T07:47:31.624Z,16.80
2022-11-01T07:49:34.159Z,16.70
2022-11-01T07:51:36.809Z,16.60
2022-11-01T07:53:39.283Z,16.60
2022-11-01T07:55:41.781Z,16.50
2022-11-01T07:57:46.116Z,16.40
2022-11-01T07:59:48.611Z,16.30
2022-11-01T08:01:51.192Z,16.20
2022-11-01T08:03:53.912Z,16.10
2022-11-01T08:05:56.635Z,16.00
2022-11-01T08:07:59.444Z,16.00
2022-11-01T08:10:02.105Z,15.90
2022-11-01T08:12:05.419Z,15.90
2022-11-01T08:14:12.076Z,15.90
2022-11-01T08:16:14.276Z,15.90
2022-11-01T08:18:17.680Z,15.80
2022-11-01T08:20:20.141Z,15.80
2022-11-01T08:22:22.704Z,15.80
2022-11-01T08:24:25.608Z,15.90
2022-11-01T08:26:28.103Z,15.90
2022-11-01T08:28:30.738Z,15.90
2022-11-01T08:30:33.231Z,15.90
2022-11-01T08:32:35.733Z,15.80
2022-11-01T08:34:38.354Z,15.90
2022-11-01T08:36:40.831Z,15.90
2022-11-01T08:38:44.012Z,15.90
2022-11-01T08:40:46.495Z,15.90
2022-11-01T08:42:49.225Z,16.00
2022-11-01T08:44:52.045Z,15.90
2022-11-01T08:46:55.042Z,15.90
2022-11-01T08:48:59.341Z,15.90
2022-11-01T08:51:02.333Z,16.00
2022-11-01T08:53:05.385Z,16.00
2022-11-01T08:55:09.285Z,16.00
2022-11-01T08:57:11.779Z,16.10
2022-11-01T08:59:14.537Z,16.10
2022-11-01T09:01:17.215Z,16.10
2022-11-01T09:03:19.733Z,16.10
2022-11-01T09:05:22.549Z,16.10
2022-11-01T09:07:25.039Z,16.20
2022-11-01T09:09:27.489Z,16.20
2022-11-01T09:11:30.549Z,16.20
2022-11-01T09:13:33.484Z,16.20
2022-11-01T09:15:35.988Z,16.20
2022-11-01T09:17:38.606Z,16.20
2022-11-01T09:19:41.634Z,16.30
2022-11-01T09:21:44.131Z,16.30
2022-11-01T09:23:46.610Z,16.40
2022-11-01T09:25:49.093Z,16.40
2022-11-01T09:27:51.580Z,16.40
2022-11-01T09:29:54.066Z,16.50
2022-11-01T09:31:56.681Z,16.50
2022-11-01T09:33:59.793Z,16.50
2022-11-01T09:36:02.298Z,16.50
2022-11-01T09:38:05.026Z,16.50
2022-11-01T09:40:09.805Z,16.60
2022-11-01T09:42:14.094Z,16.60
2022-11-01T09:44:18.474Z,16.70
2022-11-01T09:48:25.188Z,16.90
2022-11-01T09:50:29.568Z,16.80
2022-11-01T09:52:32.157Z,16.80
2022-11-01T09:54:34.686Z,16.80
2022-11-01T09:56:39.374Z,16.80
2022-11-01T09:58:45.082Z,16.90
2022-11-01T10:00:49.648Z,17.00
2022-11-01T10:03:06.981Z,17.10
2022-11-01T10:05:24.752Z,17.00
2022-11-01T10:07:29.183Z,17.20
2022-11-01T10:09:33.714Z,17.40
2022-11-01T10:11:40.587Z,17.30
2022-11-01T10:13:46.612Z,17.40
2022-11-01T10:15:52.536Z,17.70
2022-11-01T10:17:56.526Z,17.60
2022-11-01T10:19:59.593Z,17.70
2022-11-01T10:22:05.349Z,17.70
2022-11-01T10:24:09.850Z,17.50
2022-11-01T10:26:14.724Z,17.50
2022-11-01T10:28:19.037Z,17.50
2022-11-01T10:30:21.857Z,17.50
2022-11-01T10:32:27.394Z,17.70
2022-11-01T10:34:36.040Z,17.70
2022-11-01T10:39:36.929Z,17.70
2022-11-01T10:40:49.140Z,17.60
2022-11-01T10:42:51.905Z,17.40
2022-11-01T10:44:55.742Z,17.30
2022-11-01T10:46:59.213Z,17.40
2022-11-01T10:49:03.341Z,17.40
2022-11-01T10:51:07.084Z,17.40
2022-11-01T10:53:11.113Z,17.50
2022-11-01T10:55:15.653Z,17.60
2022-11-01T10:57:20.511Z,17.60
2022-11-01T10:59:24.852Z,17.60
2022-11-01T11:01:29.845Z,17.70
2022-11-01T11:03:32.672Z,17.70
2022-11-01T11:05:35.260Z,17.80
2022-11-01T11:07:37.716Z,17.90
2022-11-01T11:09:40.208Z,18.00
2022-11-01T11:11:42.791Z,18.10
2022-11-01T11:13:47.296Z,18.40
2022-11-01T11:15:51.863Z,18.40
2022-11-01T11:17:56.739Z,18.30
2022-11-01T11:20:03.840Z,18.40
2022-11-01T11:22:07.010Z,18.20
2022-11-01T11:24:18.006Z,18.30
2022-11-01T11:26:20.928Z,18.20
2022-11-01T11:28:26.359Z,18.20
2022-11-01T11:30:29.904Z,18.20
2022-11-01T11:32:33.145Z,18.20
2022-11-01T11:34:36.428Z,18.10
2022-11-01T11:36:42.013Z,18.10
2022-11-01T11:38:45.737Z,18.10
2022-11-01T11:40:48.204Z,17.90
2022-11-01T11:42:51.551Z,17.90
2022-11-01T11:44:55.884Z,18.00
2022-11-01T11:46:59.396Z,18.00
2022-11-01T11:49:03.811Z,18.00
2022-11-01T11:51:06.645Z,18.00
2022-11-01T11:53:17.628Z,18.10
2022-11-01T11:55:27.575Z,18.10
2022-11-01T11:57:30.436Z,18.20
2022-11-01T11:59:33.564Z,18.10
2022-11-01T12:01:36.213Z,18.10
2022-11-01T12:03:41.366Z,18.10
2022-11-01T12:05:51.703Z,18.10
2022-11-01T12:07:54.686Z,18.00
2022-11-01T12:09:58.056Z,18.00
2022-11-01T12:12:05.879Z,18.00
2022-11-01T12:14:12.172Z,18.00
2022-11-01T12:16:24.257Z,17.90
2022-11-01T12:18:26.753Z,17.80
2022-11-01T12:20:31.071Z,17.90
2022-11-01T12:22:34.721Z,17.80
2022-11-01T12:24:39.274Z,17.90
2022-11-01T12:26:42.741Z,17.90
2022-11-01T12:28:47.321Z,17.90
2022-11-01T12:30:51.621Z,17.90
2022-11-01T12:32:55.121Z,17.80
2022-11-01T12:34:59.423Z,17.80
2022-11-01T12:37:04.011Z,17.90
2022-11-01T12:39:13.448Z,17.80
2022-11-01T12:41:21.558Z,17.80
2022-11-01T12:43:26.081Z,17.80
2022-11-01T12:45:30.527Z,17.70
2022-11-01T12:47:34.840Z,17.80
2022-11-01T12:49:39.648Z,17.80
2022-11-01T12:51:44.324Z,17.80
2022-11-01T12:53:49.112Z,17.70
2022-11-01T12:55:51.801Z,17.80
2022-11-01T12:57:54.828Z,17.80
2022-11-01T12:59:57.532Z,17.80
2022-11-01T13:02:01.628Z,17.80
2022-11-01T13:04:09.196Z,17.80
2022-11-01T13:06:13.634Z,17.70
2022-11-01T13:08:20.569Z,17.80
2022-11-01T13:10:25.539Z,17.70
2022-11-01T13:12:30.126Z,17.60
2022-11-01T13:14:40.464Z,17.70
2022-11-01T13:16:44.682Z,17.70
2022-11-01T13:18:49.497Z,17.70
2022-11-01T13:20:54.866Z,17.60
2022-11-01T13:23:01.148Z,17.60
2022-11-01T13:25:06.042Z,17.60
2022-11-01T13:27:11.589Z,17.60
2022-11-01T13:29:17.045Z,17.70
2022-11-01T13:31:24.416Z,17.60
2022-11-01T13:33:28.802Z,17.60
2022-11-01T13:35:42.214Z,17.60
2022-11-01T13:37:46.633Z,17.60
2022-11-01T13:39:53.708Z,17.70
2022-11-01T13:41:58.200Z,17.70
2022-11-01T13:44:02.526Z,17.70
2022-11-01T13:46:16.100Z,17.70
2022-11-01T13:48:21.569Z,17.60
2022-11-01T13:50:38.114Z,17.50
2022-11-01T13:52:42.525Z,17.50
2022-11-01T13:54:48.085Z,17.50
2022-11-01T13:56:53.000Z,17.40
2022-11-01T13:58:57.408Z,17.40
2022-11-01T14:01:09.744Z,17.40
2022-11-01T14:03:20.605Z,17.40
2022-11-01T14:05:24.881Z,17.40
2022-11-01T14:07:30.245Z,17.40
2022-11-01T14:09:32.765Z,17.40
2022-11-01T14:11:54.885Z,17.50
2022-11-01T14:13:58.289Z,17.50
2022-11-01T14:16:02.078Z,17.50
2022-11-01T14:18:06.950Z,17.50
2022-11-01T14:20:27.474Z,17.40
2022-11-01T14:22:32.046Z,17.40
2022-11-01T14:24:36.325Z,17.40
2022-11-01T14:26:46.395Z,17.30
2022-11-01T14:28:49.312Z,17.40
2022-11-01T14:30:52.850Z,17.40
2022-11-01T14:32:56.481Z,17.30
2022-11-01T14:35:01.685Z,17.30
2022-11-01T14:37:07.254Z,17.30
2022-11-01T14:39:11.916Z,17.20
2022-11-01T14:41:14.906Z,17.20
2022-11-01T14:43:19.205Z,17.20
2022-11-01T14:45:29.409Z,17.10
2022-11-01T14:47:34.258Z,17.20
2022-11-01T14:49:39.365Z,17.20
2022-11-01T14:51:43.649Z,17.10
2022-11-01T14:53:47.481Z,17.10
2022-11-01T14:55:50.104Z,17.10
2022-11-01T14:58:02.928Z,17.00
2022-11-01T15:00:23.365Z,17.00
2022-11-01T15:02:26.830Z,16.90
2022-11-01T15:04:30.971Z,16.90
2022-11-01T15:06:33.893Z,16.90
2022-11-01T15:08:38.138Z,16.90
2022-11-01T15:10:41.761Z,16.90
2022-11-01T15:12:47.788Z,16.90
2022-11-01T15:14:50.776Z,16.80
2022-11-01T15:16:53.433Z,16.70
2022-11-01T15:18:57.551Z,16.60
2022-11-01T15:21:00.911Z,16.70
2022-11-01T15:23:06.012Z,16.60
2022-11-01T15:25:10.652Z,16.60
2022-11-01T15:27:13.991Z,16.50
2022-11-01T15:29:17.756Z,16.40
2022-11-01T15:31:20.552Z,16.30
2022-11-01T15:33:23.840Z,16.20
2022-11-01T15:35:26.555Z,16.20
2022-11-01T15:37:32.169Z,16.20
2022-11-01T15:39:37.204Z,16.20
2022-11-01T15:41:39.996Z,16.10
2022-11-01T15:43:44.260Z,16.10
2022-11-01T15:45:48.704Z,15.90
2022-11-01T15:47:51.731Z,15.90
2022-11-01T15:49:56.107Z,15.90
2022-11-01T15:52:01.003Z,15.80
2022-11-01T15:54:05.276Z,15.80
2022-11-01T15:56:09.681Z,15.70
2022-11-01T15:58:14.199Z,15.70
2022-11-01T16:00:18.192Z,15.70
2022-11-01T16:02:22.831Z,15.60
2022-11-01T16:04:26.731Z,15.50
2022-11-01T16:06:31.489Z,15.90
2022-11-01T16:08:35.878Z,15.50
2022-11-01T16:10:38.365Z,15.40
2022-11-01T16:12:42.640Z,15.50
2022-11-01T16:14:46.937Z,15.40
2022-11-01T16:16:55.931Z,15.40
2022-11-01T16:18:58.439Z,15.40
2022-11-01T16:21:01.935Z,15.40
2022-11-01T16:23:05.677Z,15.30
2022-11-01T16:25:15.989Z,15.30
2022-11-01T16:27:26.958Z,15.20
2022-11-01T16:29:39.588Z,15.10
2022-11-01T16:31:42.446Z,15.10
2022-11-01T16:33:45.427Z,15.10
2022-11-01T16:35:48.661Z,15.10
2022-11-01T16:37:51.734Z,15.00
2022-11-01T16:39:54.746Z,15.00
2022-11-01T16:41:57.381Z,15.00
2022-11-01T16:44:00.582Z,14.90
2022-11-01T16:46:04.623Z,14.90
2022-11-01T16:48:10.250Z,14.80
2022-11-01T16:50:15.508Z,14.80
2022-11-01T16:52:18.434Z,14.70
2022-11-01T16:54:20.902Z,14.70
2022-11-01T16:56:40.752Z,14.60
2022-11-01T16:58:30.712Z,14.60
2022-11-01T17:00:33.204Z,14.60
2022-11-01T17:02:35.872Z,14.60
2022-11-01T17:04:38.567Z,14.50
2022-11-01T17:06:41.093Z,14.50
2022-11-01T17:08:43.579Z,14.40
2022-11-01T17:10:46.280Z,14.40
2022-11-01T17:12:48.866Z,14.40
2022-11-01T17:14:51.852Z,14.30
2022-11-01T17:16:55.664Z,14.30
2022-11-01T17:18:59.985Z,14.30
2022-11-01T17:21:04.276Z,14.20
2022-11-01T17:23:09.727Z,14.20
2022-11-01T17:25:14.788Z,14.20
2022-11-01T17:27:18.421Z,14.10
2022-11-01T17:29:21.272Z,14.10
2022-11-01T17:31:24.416Z,14.20
2022-11-01T17:33:27.132Z,14.10
2022-11-01T17:35:29.821Z,14.10
2022-11-01T17:37:34.142Z,14.10
2022-11-01T17:39:36.602Z,14.20
2022-11-01T17:41:39.382Z,14.10
2022-11-01T17:43:42.581Z,14.10
2022-11-01T17:45:45.489Z,14.10
2022-11-01T17:47:48.198Z,14.00
2022-11-01T17:49:50.710Z,14.00
2022-11-01T17:51:54.874Z,13.90
2022-11-01T17:53:58.010Z,13.90
2022-11-01T17:56:00.506Z,13.90
2022-11-01T17:58:03.768Z,13.90
2022-11-01T18:00:07.769Z,14.00
2022-11-01T18:02:12.635Z,13.90
2022-11-01T18:04:15.424Z,13.90
2022-11-01T18:06:18.049Z,13.90
2022-11-01T18:08:22.143Z,13.90
2022-11-01T18:10:26.448Z,13.90
2022-11-01T18:12:30.917Z,13.90
2022-11-01T18:14:41.934Z,13.90
2022-11-01T18:16:47.092Z,13.80
2022-11-01T18:18:54.397Z,13.90
2022-11-01T18:21:02.933Z,13.80
2022-11-01T18:23:06.444Z,13.80
2022-11-01T18:25:13.906Z,13.80
2022-11-01T18:27:18.434Z,13.80
2022-11-01T18:29:22.964Z,13.80
2022-11-01T18:31:28.130Z,13.80
2022-11-01T18:33:32.812Z,13.80
2022-11-01T18:35:37.117Z,13.80
2022-11-01T18:37:41.631Z,13.80
2022-11-01T18:39:47.406Z,13.80
2022-11-01T18:41:50.333Z,13.80
2022-11-01T18:43:53.481Z,13.70
2022-11-01T18:48:01.698Z,13.70
2022-11-01T18:50:07.236Z,13.70
2022-11-01T18:52:11.176Z,13.60
2022-11-01T18:54:19.604Z,13.70
2022-11-01T18:56:23.141Z,13.70
2022-11-01T18:58:28.352Z,13.70
2022-11-01T19:00:30.837Z,13.60
2022-11-01T19:02:35.188Z,13.60
2022-11-01T19:04:38.364Z,13.60
2022-11-01T19:06:40.949Z,13.60
2022-11-01T19:08:44.550Z,13.50
2022-11-01T19:10:47.189Z,13.60
2022-11-01T19:12:54.000Z,13.50
2022-11-01T19:14:58.540Z,13.50
2022-11-01T19:17:01.236Z,13.50
2022-11-01T19:19:06.525Z,13.50
2022-11-01T19:21:14.936Z,13.40
2022-11-01T19:23:18.986Z,13.40
2022-11-01T19:25:23.344Z,13.40
2022-11-01T19:27:26.092Z,13.40
2022-11-01T19:29:30.407Z,13.30
2022-11-01T19:31:35.365Z,13.30
2022-11-01T19:33:38.598Z,12.90
2022-11-01T19:35:41.474Z,13.30
2022-11-01T19:37:44.184Z,13.30
2022-11-01T19:39:47.013Z,13.30
2022-11-01T19:41:49.945Z,13.30
2022-11-01T19:43:54.212Z,13.30
2022-11-01T19:45:57.036Z,13.30
2022-11-01T19:48:01.082Z,13.20
2022-11-01T19:50:11.780Z,13.20
2022-11-01T19:52:17.741Z,13.20
2022-11-01T19:54:20.216Z,13.20
2022-11-01T19:56:23.759Z,13.30
2022-11-01T19:58:45.978Z,13.20
2022-11-01T20:00:48.563Z,13.20
2022-11-01T20:02:52.225Z,13.20
2022-11-01T20:04:56.947Z,13.20
2022-11-01T20:07:01.393Z,13.10
2022-11-01T20:09:06.036Z,13.10
2022-11-01T20:11:08.545Z,13.00
2022-11-01T20:13:11.369Z,13.00
2022-11-01T20:15:13.955Z,13.00
2022-11-01T20:17:17.496Z,13.00
2022-11-01T20:19:20.240Z,13.00
2022-11-01T20:21:22.704Z,13.00
2022-11-01T20:23:26.760Z,13.00
2022-11-01T20:27:45.595Z,13.00
2022-11-01T20:29:56.957Z,13.00
2022-11-01T20:31:59.872Z,13.00
2022-11-01T20:34:02.615Z,13.00
2022-11-01T20:36:10.845Z,13.10
2022-11-01T20:38:10.422Z,13.10
2022-11-01T20:40:13.529Z,13.10
2022-11-01T20:42:16.022Z,13.10
2022-11-01T20:44:19.824Z,13.10
2022-11-01T20:46:23.325Z,13.20
2022-11-01T20:48:26.022Z,13.20
2022-11-01T20:50:28.881Z,13.10
2022-11-01T20:52:39.745Z,13.20
2022-11-01T20:54:35.676Z,13.20
2022-11-01T20:56:39.857Z,13.20
2022-11-01T20:58:42.349Z,13.10
2022-11-01T21:00:44.883Z,13.10
2022-11-01T21:02:47.401Z,13.10
2022-11-01T21:04:52.608Z,13.10
2022-11-01T21:06:55.089Z,12.60
2022-11-01T21:08:58.112Z,13.10
2022-11-01T21:11:02.206Z,13.10
2022-11-01T21:13:09.670Z,13.10
2022-11-01T21:15:22.277Z,13.10
2022-11-01T21:17:24.805Z,13.00
2022-11-01T21:19:27.289Z,13.10
2022-11-01T21:21:32.125Z,13.10
2022-11-01T21:23:35.257Z,13.10
2022-11-01T21:25:38.085Z,13.10
2022-11-01T21:27:42.367Z,13.10
2022-11-01T21:29:45.765Z,13.10
2022-11-01T21:31:48.275Z,13.10
2022-11-01T21:33:52.381Z,13.20
2022-11-01T21:35:54.921Z,13.20
2022-11-01T21:37:57.643Z,13.10
2022-11-01T21:40:05.677Z,13.20
2022-11-01T21:42:07.969Z,13.20
2022-11-01T21:44:16.855Z,13.30
2022-11-01T21:46:21.284Z,13.30
2022-11-01T21:48:26.089Z,13.30
2022-11-01T21:50:28.572Z,13.30
2022-11-01T21:52:31.064Z,13.20
2022-11-01T21:54:34.766Z,13.20
2022-11-01T21:56:37.360Z,13.30
2022-11-01T21:58:39.819Z,13.20
2022-11-01T22:00:42.326Z,13.20
2022-11-01T22:02:44.857Z,13.20
2022-11-01T22:04:47.425Z,13.20
2022-11-01T22:06:49.890Z,13.10
2022-11-01T22:08:52.372Z,13.10
2022-11-01T22:10:54.879Z,13.10
2022-11-01T22:12:57.404Z,13.10
2022-11-01T22:14:59.856Z,13.00
2022-11-01T22:17:02.607Z,13.10
2022-11-01T22:19:05.574Z,13.10
2022-11-01T22:21:08.073Z,13.10
2022-11-01T22:23:10.564Z,13.20
2022-11-01T22:25:13.128Z,13.20
2022-11-01T22:27:15.625Z,13.20
2022-11-01T22:29:18.117Z,13.10
2022-11-01T22:31:20.930Z,13.10
2022-11-01T22:33:23.456Z,13.10
2022-11-01T22:35:25.940Z,13.10
2022-11-01T22:37:30.216Z,13.20
2022-11-01T22:39:32.697Z,13.10
2022-11-01T22:41:35.676Z,13.20
2022-11-01T22:43:39.881Z,13.30
2022-11-01T22:45:42.505Z,13.20
2022-11-01T22:47:46.048Z,13.30
2022-11-01T22:49:50.879Z,13.30
2022-11-01T22:51:53.860Z,13.30
2022-11-01T22:53:58.062Z,13.20
2022-11-01T22:56:00.537Z,13.20
2022-11-01T22:58:05.242Z,13.10
2022-11-01T23:00:22.804Z,13.20
2022-11-01T23:02:26.821Z,13.10
2022-11-01T23:04:29.492Z,13.10
2022-11-01T23:06:32.992Z,13.20
2022-11-01T23:08:38.200Z,13.20
2022-11-01T23:10:42.499Z,13.20
2022-11-01T23:13:03.553Z,13.20
2022-11-01T23:15:06.760Z,13.20
2022-11-01T23:17:22.147Z,13.20
2022-11-01T23:19:24.604Z,13.20
2022-11-01T23:21:27.343Z,13.20
2022-11-01T23:23:29.833Z,13.30
2022-11-01T23:25:32.431Z,13.30
2022-11-01T23:27:35.207Z,13.40
2022-11-01T23:29:37.675Z,13.30
2022-11-01T23:31:40.153Z,13.30
2022-11-01T23:33:43.327Z,13.30
2022-11-01T23:35:47.685Z,13.30
2022-11-01T23:37:51.040Z,13.30
2022-11-01T23:39:53.536Z,13.30
2022-11-01T23:41:56.002Z,13.30
2022-11-01T23:43:59.803Z,13.30
2022-11-01T23:46:02.276Z,13.30
2022-11-01T23:48:05.582Z,13.40
2022-11-01T23:50:11.900Z,13.40
2022-11-01T23:52:19.668Z,13.50
2022-11-01T23:54:23.912Z,13.50
2022-11-01T23:56:26.363Z,13.50
2022-11-01T23:58:30.426Z,13.60
